createdAt,value
2023-02-02T04:42:22.330Z,2.96
2023-02-02T04:45:25.991Z,2.96
2023-02-02T04:48:28.705Z,2.52
2023-02-02T04:51:31.420Z,2.57
2023-02-02T04:54:33.977Z,2.57
2023-02-02T04:57:36.569Z,2.62
2023-02-02T05:00:39.055Z,2.60
2023-02-02T05:03:42.262Z,2.64
2023-02-02T05:06:44.677Z,2.67
2023-02-02T05:09:47.436Z,2.68
2023-02-02T05:12:53.108Z,2.78
2023-02-02T05:15:55.866Z,2.75
2023-02-02T05:18:59.505Z,2.63
2023-02-02T05:22:02.315Z,2.59
2023-02-02T05:25:06.464Z,2.50
2023-02-02T05:28:09.255Z,2.44
2023-02-02T05:31:11.971Z,2.60
2023-02-02T05:34:15.054Z,2.54
2023-02-02T05:37:17.711Z,2.68
2023-02-02T05:40:20.755Z,2.71
2023-02-02T05:43:27.646Z,2.51
2023-02-02T05:46:30.750Z,2.49
2023-02-02T05:49:33.415Z,2.49
2023-02-02T05:52:37.467Z,2.49
2023-02-02T05:55:39.854Z,2.62
2023-02-02T05:58:44.481Z,2.61
2023-02-02T06:01:47.337Z,2.51
2023-02-02T06:04:50.451Z,2.43
2023-02-02T06:07:52.876Z,2.46
2023-02-02T06:10:55.697Z,2.41
2023-02-02T06:13:58.115Z,2.43
2023-02-02T06:17:00.938Z,2.54
2023-02-02T06:20:04.487Z,2.49
2023-02-02T06:23:07.921Z,2.48
2023-02-02T06:26:10.250Z,2.46
2023-02-02T06:29:13.870Z,2.47
2023-02-02T06:32:16.420Z,2.46
2023-02-02T06:35:19.639Z,2.44
2023-02-02T06:38:22.026Z,2.52
2023-02-02T06:41:25.972Z,2.54
2023-02-02T06:44:29.517Z,2.57
2023-02-02T06:47:33.665Z,2.54
2023-02-02T06:50:36.064Z,2.59
2023-02-02T06:53:38.724Z,2.60
2023-02-02T06:56:41.026Z,2.66
2023-02-02T06:59:44.044Z,2.69
2023-02-02T07:02:47.246Z,2.73
2023-02-02T07:05:49.916Z,2.75
2023-02-02T07:09:01.959Z,2.76
2023-02-02T07:12:06.108Z,2.81
2023-02-02T07:15:08.870Z,2.87
2023-02-02T07:18:11.597Z,2.94
2023-02-02T07:21:20.217Z,2.97
2023-02-02T07:24:23.183Z,2.99
2023-02-02T07:27:25.729Z,3.06
2023-02-02T07:30:29.852Z,3.12
2023-02-02T07:33:32.416Z,3.13
2023-02-02T07:36:35.644Z,3.35
2023-02-02T07:39:40.130Z,3.47
2023-02-02T07:42:46.885Z,3.57
2023-02-02T07:45:49.376Z,3.74
2023-02-02T07:48:56.368Z,3.86
2023-02-02T07:51:58.775Z,3.89
2023-02-02T07:55:13.894Z,4.03
2023-02-02T07:58:17.071Z,4.00
2023-02-02T08:01:22.881Z,4.16
2023-02-02T08:04:25.851Z,4.26
2023-02-02T08:07:28.427Z,4.30
2023-02-02T08:10:31.207Z,4.42
2023-02-02T08:13:33.563Z,4.49
2023-02-02T08:16:36.495Z,4.57
2023-02-02T08:19:39.138Z,4.68
2023-02-02T08:22:42.147Z,4.78
2023-02-02T08:25:44.786Z,4.97
2023-02-02T08:28:53.359Z,5.26
2023-02-02T08:31:55.747Z,5.58
2023-02-02T08:34:58.413Z,5.82
2023-02-02T08:38:05.220Z,5.97
2023-02-02T08:41:10.474Z,6.14
2023-02-02T08:44:15.903Z,6.27
2023-02-02T08:47:18.611Z,6.51
2023-02-02T08:50:21.273Z,7.11
2023-02-02T08:53:25.497Z,8.39
2023-02-02T08:56:27.908Z,8.86
2023-02-02T08:59:30.586Z,7.95
2023-02-02T09:02:33.165Z,7.81
2023-02-02T09:05:38.517Z,7.72
2023-02-02T09:08:41.660Z,7.21
2023-02-02T09:11:44.663Z,7.08
2023-02-02T09:14:47.111Z,7.08
2023-02-02T09:17:49.701Z,7.09
2023-02-02T09:20:52.268Z,7.06
2023-02-02T09:23:55.465Z,6.96
2023-02-02T09:26:57.895Z,6.78
2023-02-02T09:30:00.649Z,6.61
2023-02-02T09:33:03.051Z,6.54
2023-02-02T09:36:12.849Z,6.51
2023-02-02T09:39:16.603Z,6.40
2023-02-02T09:42:43.957Z,6.36
2023-02-02T09:45:55.214Z,6.33
2023-02-02T09:49:03.971Z,6.43
2023-02-02T09:52:16.282Z,6.43
2023-02-02T09:55:39.611Z,6.55
2023-02-02T09:59:06.943Z,6.53
2023-02-02T10:02:45.779Z,6.60
2023-02-02T10:06:01.987Z,6.77
2023-02-02T10:09:10.710Z,6.81
2023-02-02T10:12:47.766Z,6.72
2023-02-02T10:16:06.437Z,6.73
2023-02-02T10:19:13.820Z,6.71
2023-02-02T10:22:21.973Z,6.65
2023-02-02T10:25:27.826Z,6.70
2023-02-02T10:28:58.766Z,6.68
2023-02-02T10:32:44.904Z,6.87
2023-02-02T10:35:53.577Z,6.83
2023-02-02T10:39:10.124Z,6.82
2023-02-02T10:42:41.186Z,6.86
2023-02-02T10:45:45.234Z,6.97
2023-02-02T10:48:48.984Z,7.07
2023-02-02T10:52:04.194Z,7.01
2023-02-02T10:55:31.067Z,6.91
2023-02-02T10:58:44.389Z,7.00
2023-02-02T11:01:48.494Z,7.03
2023-02-02T11:05:10.737Z,7.10
2023-02-02T11:08:32.483Z,7.16
2023-02-02T11:11:42.519Z,7.31
2023-02-02T11:14:47.789Z,7.33
2023-02-02T11:17:50.438Z,7.32
2023-02-02T11:20:53.014Z,7.12
2023-02-02T11:24:24.063Z,7.17
2023-02-02T11:27:28.885Z,7.33
2023-02-02T11:30:35.640Z,7.35
2023-02-02T11:33:38.365Z,7.37
2023-02-02T11:36:41.132Z,7.22
2023-02-02T11:39:44.486Z,7.23
2023-02-02T11:42:54.228Z,7.25
2023-02-02T11:46:05.686Z,7.23
2023-02-02T11:49:18.931Z,7.36
2023-02-02T11:52:23.888Z,7.36
2023-02-02T11:55:30.737Z,7.39
2023-02-02T11:58:46.860Z,7.29
2023-02-02T12:01:49.812Z,7.21
2023-02-02T12:05:14.720Z,7.11
2023-02-02T12:08:17.536Z,6.99
2023-02-02T12:11:44.504Z,6.92
2023-02-02T12:15:20.022Z,6.86
2023-02-02T12:18:51.416Z,6.68
2023-02-02T12:22:22.346Z,6.65
2023-02-02T12:25:34.214Z,6.69
2023-02-02T12:28:58.658Z,6.57
2023-02-02T12:32:02.382Z,6.54
2023-02-02T12:35:42.765Z,6.55
2023-02-02T12:39:04.073Z,6.56
2023-02-02T12:42:18.490Z,6.53
2023-02-02T12:45:37.952Z,6.51
2023-02-02T12:49:11.590Z,6.49
2023-02-02T12:52:59.794Z,6.52
2023-02-02T12:56:28.074Z,6.46
2023-02-02T12:59:49.031Z,6.50
2023-02-02T13:03:21.048Z,6.61
2023-02-02T13:07:05.573Z,6.67
2023-02-02T13:10:25.113Z,6.61
2023-02-02T13:13:35.643Z,6.72
2023-02-02T13:16:42.556Z,6.72
2023-02-02T13:19:51.622Z,6.68
2023-02-02T13:22:59.798Z,6.56
2023-02-02T13:26:13.590Z,6.53
2023-02-02T13:29:50.972Z,6.58
2023-02-02T13:32:59.334Z,6.60
2023-02-02T13:36:08.448Z,6.59
2023-02-02T13:39:26.408Z,6.66
2023-02-02T13:42:36.499Z,6.58
2023-02-02T13:46:12.666Z,6.62
2023-02-02T13:49:21.915Z,6.62
2023-02-02T13:52:43.369Z,6.58
2023-02-02T13:56:14.355Z,6.60
2023-02-02T13:59:26.897Z,6.61
2023-02-02T14:02:33.203Z,6.77
2023-02-02T14:05:41.546Z,6.88
2023-02-02T14:08:59.139Z,7.04
2023-02-02T14:12:08.853Z,7.04
2023-02-02T14:15:13.298Z,7.06
2023-02-02T14:18:48.208Z,6.96
2023-02-02T14:21:58.667Z,6.81
2023-02-02T14:25:01.524Z,6.75
2023-02-02T14:28:10.609Z,6.69
2023-02-02T14:31:17.554Z,6.66
2023-02-02T14:34:44.232Z,6.70
2023-02-02T14:38:04.945Z,6.64
2023-02-02T14:42:21.004Z,6.66
2023-02-02T14:45:39.491Z,6.68
2023-02-02T14:48:44.286Z,6.74
2023-02-02T14:52:02.190Z,6.85
2023-02-02T14:55:05.231Z,6.78
2023-02-02T14:58:08.129Z,6.74
2023-02-02T15:01:29.301Z,6.66
2023-02-02T15:04:32.095Z,6.56
2023-02-02T15:07:34.436Z,6.56
2023-02-02T15:10:53.940Z,6.41
2023-02-02T15:14:06.900Z,6.29
2023-02-02T15:17:22.485Z,6.32
2023-02-02T15:20:33.191Z,6.32
2023-02-02T15:23:43.831Z,6.18
2023-02-02T15:26:48.575Z,6.07
2023-02-02T15:29:59.971Z,6.08
2023-02-02T15:33:07.559Z,6.00
2023-02-02T15:36:25.119Z,5.91
2023-02-02T15:39:31.244Z,5.91
2023-02-02T15:42:55.652Z,5.79
2023-02-02T15:46:24.387Z,5.82
2023-02-02T15:49:34.857Z,5.67
2023-02-02T15:52:46.964Z,5.62
2023-02-02T15:55:49.995Z,5.65
2023-02-02T15:58:55.226Z,5.49
2023-02-02T16:02:31.377Z,5.36
2023-02-02T16:05:37.352Z,5.25
2023-02-02T16:08:41.030Z,5.19
2023-02-02T16:11:45.480Z,5.13
2023-02-02T16:14:50.929Z,5.06
2023-02-02T16:18:15.291Z,4.96
2023-02-02T16:21:21.922Z,5.02
2023-02-02T16:24:44.096Z,4.96
2023-02-02T16:27:48.655Z,4.94
2023-02-02T16:30:52.999Z,4.86
2023-02-02T16:33:56.873Z,4.92
2023-02-02T16:37:29.847Z,4.94
2023-02-02T16:40:32.539Z,4.87
2023-02-02T16:43:38.102Z,4.84
2023-02-02T16:46:47.481Z,4.71
2023-02-02T16:49:51.171Z,4.76
